Terminal Aerodrome Forecast
Issued by NWS Mt. Holly, NJ

Home | Current Version | Previous Version | Text Only | Print | Product List | Glossary On
Versions: 1 2 3 4 5 6 7 8 9 10 11 12 13 14 15 16 17 18 19 20 21 22 23 24 25 26 27
000
FTUS41 KPHI 202208 AAB
TAFTTN
TAF AMD
KTTN 202208Z 2022/2118 13004KT 4SM BR SCT005 OVC015
      TEMPO 2022/2024 OVC005
     FM210000 15004KT 3SM -DZ BR OVC005
     FM210500 18003KT 3/4SM -DZ BR OVC002
     FM211400 23005KT 3SM BR BKN008
     FM211700 22006KT P6SM FEW009 BKN020=

USA.gov is the U.S. government's official web portal to all federal, state and local government web resources and services.